Time;durP1;ratioP1;P1;durP2;ratioP2;P2;SDS_P1;SDS_P2;PMS_P1;PMS_P2;Temp;Humidity;BMP_temperature;BMP_pressure;BME280_temperature;BME280_humidity;BME280_pressure;Samples;Min_cycle;Max_cycle;Signal;HPM_P1;HPM_P2
2023/06/14 00:00:19;;;;;;;5.75;4.70;;;;;;;23.12;20.19;100922.72;5057859;28;20131;-79
2023/06/14 00:02:47;;;;;;;5.82;4.65;;;;;;;23.09;20.18;100925.94;5061241;28;20044;-78
2023/06/14 00:05:18;;;;;;;6.53;4.60;;;;;;;23.06;20.10;100927.25;5056545;28;20037;-79
2023/06/14 00:07:48;;;;;;;6.68;4.60;;;;;;;23.03;20.27;100927.66;5059849;28;20061;-77
2023/06/14 00:10:16;;;;;;;6.70;4.60;;;;;;;22.98;19.98;100928.31;5063885;28;20118;-77
2023/06/14 00:12:44;;;;;;;6.28;4.80;;;;;;;22.96;20.15;100929.59;5067754;28;20050;-78
2023/06/14 00:15:12;;;;;;;7.03;5.10;;;;;;;22.92;20.45;100934.72;5064133;28;20670;-77
2023/06/14 00:17:40;;;;;;;6.47;5.00;;;;;;;22.90;20.48;100936.03;5065613;28;20033;-78
2023/06/14 00:20:09;;;;;;;7.38;5.20;;;;;;;22.88;20.40;100929.81;5066616;28;20045;-77
2023/06/14 00:22:38;;;;;;;5.72;4.20;;;;;;;22.85;20.20;100936.66;5071065;28;20340;-77
2023/06/14 00:25:08;;;;;;;6.13;4.50;;;;;;;22.85;20.28;100935.81;5066297;28;20914;-77
2023/06/14 00:27:55;;;;;;;6.13;4.55;;;;;;;22.80;20.50;100946.75;5064336;28;20036;-79
2023/06/14 00:30:23;;;;;;;6.47;4.47;;;;;;;22.77;20.27;100948.03;5059066;28;20718;-78
2023/06/14 00:32:52;;;;;;;6.10;4.47;;;;;;;22.74;20.67;100940.09;5070959;28;20041;-77
2023/06/14 00:35:20;;;;;;;6.60;5.35;;;;;;;22.73;20.27;100948.69;5066608;28;20056;-77
2023/06/14 00:37:48;;;;;;;6.40;4.50;;;;;;;22.70;20.41;100949.97;5067582;28;20032;-77
2023/06/14 00:40:17;;;;;;;6.32;4.35;;;;;;;22.69;20.62;100939.00;5068220;28;20064;-78
2023/06/14 00:42:46;;;;;;;4.90;4.22;;;;;;;22.64;20.53;100951.69;5064708;28;20432;-76
2023/06/14 00:45:14;;;;;;;6.25;4.65;;;;;;;22.61;20.67;100942.84;5061176;28;20112;-77
2023/06/14 00:47:43;;;;;;;6.45;4.68;;;;;;;22.59;20.52;100951.44;5068956;28;20474;-78
2023/06/14 00:50:12;;;;;;;6.32;4.47;;;;;;;22.55;20.86;100952.94;5079036;28;20051;-77
2023/06/14 00:52:41;;;;;;;6.78;4.65;;;;;;;22.53;20.44;100955.06;5088548;28;20135;-77
2023/06/14 00:55:09;;;;;;;5.28;4.57;;;;;;;22.51;21.00;100951.59;5068914;28;20048;-78
2023/06/14 00:57:39;;;;;;;7.80;4.75;;;;;;;22.49;20.91;100945.38;5072838;28;20567;-78
2023/06/14 01:00:09;;;;;;;6.45;4.63;;;;;;;22.45;21.12;100946.88;5069273;28;20037;-77
2023/06/14 01:02:38;;;;;;;6.78;4.93;;;;;;;22.42;21.19;100952.03;5078470;28;20035;-77
2023/06/14 01:05:10;;;;;;;5.15;4.32;;;;;;;22.37;21.19;100951.78;5070115;28;20048;-77
2023/06/14 01:07:57;;;;;;;5.15;4.10;;;;;;;22.37;21.52;100952.63;5071477;28;20046;-77
2023/06/14 01:10:37;;;;;;;6.60;4.35;;;;;;;22.35;21.34;100951.97;5071981;28;20082;-77
2023/06/14 01:13:13;;;;;;;6.20;4.78;;;;;;;22.33;21.28;100962.50;5072711;28;20104;-78
2023/06/14 01:15:45;;;;;;;5.60;4.55;;;;;;;22.28;21.13;100967.81;5068307;28;20047;-77
2023/06/14 01:18:17;;;;;;;6.25;4.78;;;;;;;22.25;21.51;100962.69;5075473;28;20037;-77
2023/06/14 01:20:49;;;;;;;5.82;4.13;;;;;;;22.19;21.46;100958.78;5065273;28;20078;-77
2023/06/14 01:23:20;;;;;;;6.07;4.55;;;;;;;22.18;21.30;100961.78;5073267;28;20033;-78
2023/06/14 01:25:52;;;;;;;5.30;4.22;;;;;;;22.17;21.17;100954.50;5059230;28;20059;-78
2023/06/14 01:28:21;;;;;;;5.68;4.25;;;;;;;22.15;21.32;100956.63;5061268;28;20071;-77
2023/06/14 01:30:54;;;;;;;6.10;4.57;;;;;;;22.16;21.49;100963.94;5057205;28;20136;-78
2023/06/14 01:33:25;;;;;;;5.10;4.10;;;;;;;22.12;21.62;100962.63;5064195;28;20045;-77
2023/06/14 01:35:54;;;;;;;5.35;4.22;;;;;;;22.07;21.78;100957.69;5051512;28;20053;-77
2023/06/14 01:38:26;;;;;;;5.93;4.63;;;;;;;22.07;21.67;100968.84;5063039;28;20099;-77
2023/06/14 01:40:56;;;;;;;5.73;4.73;;;;;;;22.01;22.00;100958.53;5075716;28;20112;-78
2023/06/14 01:43:26;;;;;;;5.70;4.50;;;;;;;21.99;22.14;100965.34;5069641;28;20091;-78
2023/06/14 01:45:56;;;;;;;6.50;4.40;;;;;;;21.99;21.95;100968.16;5060542;28;20052;-80
2023/06/14 01:48:24;;;;;;;5.55;4.47;;;;;;;21.95;21.74;100962.09;5068400;28;20072;-79
2023/06/14 01:50:53;;;;;;;6.32;4.40;;;;;;;21.93;22.10;100967.06;5065656;28;20036;-79
2023/06/14 01:53:21;;;;;;;6.07;4.80;;;;;;;21.88;22.03;100970.41;5067223;28;20539;-79
2023/06/14 01:55:53;;;;;;;6.43;4.60;;;;;;;21.87;21.93;100967.81;5080897;28;20056;-79
2023/06/14 01:58:21;;;;;;;;;;;;;;;21.53;22.53;100969.53;5060834;28;20071;-79
2023/06/14 02:00:49;;;;;;;6.43;4.47;;;;;;;21.75;22.02;100964.78;5066536;28;20371;-79
2023/06/14 02:03:19;;;;;;;6.97;4.90;;;;;;;21.75;22.30;100959.19;5064311;28;20075;-79
2023/06/14 02:05:47;;;;;;;5.68;4.68;;;;;;;21.72;21.76;100967.97;5060984;28;20100;-78
2023/06/14 02:08:15;;;;;;;6.22;4.70;;;;;;;21.68;22.02;100965.81;5061980;28;20048;-78
2023/06/14 02:10:43;;;;;;;5.90;4.70;;;;;;;21.63;21.73;100952.47;5060671;28;20098;-77
2023/06/14 02:13:12;;;;;;;5.25;4.18;;;;;;;21.63;22.19;100958.03;5064846;28;20131;-79
2023/06/14 02:15:43;;;;;;;5.90;4.80;;;;;;;21.55;21.99;100955.41;5079262;28;20053;-79
2023/06/14 02:18:11;;;;;;;6.18;5.05;;;;;;;21.53;22.32;100955.63;5066026;28;20071;-79
2023/06/14 02:20:39;;;;;;;5.03;4.45;;;;;;;21.50;22.36;100957.97;5077600;28;20047;-79
2023/06/14 02:23:07;;;;;;;6.25;4.50;;;;;;;21.46;21.94;100960.28;5084022;28;20062;-78
2023/06/14 02:25:36;;;;;;;5.65;4.30;;;;;;;21.44;22.34;100955.97;5059496;28;20052;-77
2023/06/14 02:28:08;;;;;;;5.82;4.35;;;;;;;21.39;22.32;100956.59;5056282;28;20265;-78
2023/06/14 02:30:38;;;;;;;5.47;4.50;;;;;;;21.40;22.27;100961.09;5057235;28;20083;-78
2023/06/14 02:33:06;;;;;;;6.43;5.10;;;;;;;21.37;22.28;100961.50;5077994;28;20087;-79
2023/06/14 02:35:35;;;;;;;5.32;4.32;;;;;;;21.34;22.12;100964.72;5055573;28;20051;-78
2023/06/14 02:38:02;;;;;;;6.05;4.55;;;;;;;21.31;22.41;100959.53;5054302;28;20049;-78
2023/06/14 02:40:30;;;;;;;5.80;4.65;;;;;;;21.30;22.49;100960.59;5051919;28;20123;-78
2023/06/14 02:42:58;;;;;;;6.03;5.25;;;;;;;21.26;22.56;100961.22;5069940;28;20505;-78
2023/06/14 02:45:26;;;;;;;6.03;4.88;;;;;;;21.25;22.79;100965.88;5064475;28;20064;-78
2023/06/14 02:47:56;;;;;;;5.95;4.43;;;;;;;21.23;22.49;100958.78;5051741;28;20033;-78
2023/06/14 02:50:25;;;;;;;6.53;4.55;;;;;;;21.21;22.79;100966.47;5053214;28;20052;-77
2023/06/14 02:52:55;;;;;;;6.05;4.63;;;;;;;21.18;22.69;100972.47;5056048;28;20063;-78
2023/06/14 02:55:23;;;;;;;6.45;4.38;;;;;;;21.14;22.86;100967.28;5052314;28;20051;-78
2023/06/14 02:57:53;;;;;;;5.57;4.40;;;;;;;21.13;22.73;100979.47;5062418;28;20094;-79
2023/06/14 03:00:21;;;;;;;5.53;4.60;;;;;;;21.12;22.85;100983.31;5055947;28;20067;-78
2023/06/14 03:02:51;;;;;;;5.97;4.53;;;;;;;21.09;22.69;100980.09;5064184;28;20124;-79
2023/06/14 03:05:21;;;;;;;6.07;4.60;;;;;;;21.10;22.76;100992.94;5054522;28;20037;-77
2023/06/14 03:07:50;;;;;;;5.32;4.45;;;;;;;21.04;22.79;101000.16;5052766;28;20052;-77
2023/06/14 03:10:18;;;;;;;6.65;5.00;;;;;;;21.02;22.72;100995.88;5054213;28;20480;-78
2023/06/14 03:12:47;;;;;;;6.05;4.70;;;;;;;21.01;23.06;101005.28;5054922;28;20053;-77
2023/06/14 03:15:17;;;;;;;6.10;4.80;;;;;;;20.98;22.59;101005.66;5052220;28;20036;-78
2023/06/14 03:17:49;;;;;;;7.97;4.93;;;;;;;20.92;22.67;101001.78;5055225;28;20472;-78
2023/06/14 03:20:17;;;;;;;6.63;4.63;;;;;;;20.92;23.07;101007.34;5056356;28;20057;-78
2023/06/14 03:22:48;;;;;;;6.53;4.60;;;;;;;20.92;23.22;101012.03;5056704;28;20116;-78
2023/06/14 03:25:18;;;;;;;6.22;4.78;;;;;;;20.88;23.31;101010.69;5052823;28;20059;-78
2023/06/14 03:27:48;;;;;;;5.80;4.78;;;;;;;20.84;23.09;101015.81;5061125;28;20068;-77
2023/06/14 03:30:17;;;;;;;6.78;5.00;;;;;;;20.84;22.97;101017.72;5057432;28;20037;-78
2023/06/14 03:32:48;;;;;;;5.87;4.30;;;;;;;20.80;23.35;101011.69;5059765;28;20045;-78
2023/06/14 03:35:17;;;;;;;5.20;4.47;;;;;;;20.81;23.45;101015.34;5055928;28;20102;-78
2023/06/14 03:37:49;;;;;;;5.38;4.57;;;;;;;20.81;23.59;101018.97;5078644;28;20055;-79
2023/06/14 03:40:20;;;;;;;5.47;4.45;;;;;;;20.80;23.59;101019.16;5059018;28;20574;-78
2023/06/14 03:42:52;;;;;;;6.78;4.75;;;;;;;20.76;23.12;101021.50;5057070;28;20044;-79
2023/06/14 03:45:20;;;;;;;6.00;4.20;;;;;;;20.75;23.36;101017.00;5062114;28;20045;-78
2023/06/14 03:47:50;;;;;;;5.95;4.75;;;;;;;20.73;23.09;101027.44;5077603;28;20036;-77
2023/06/14 03:50:19;;;;;;;7.05;4.85;;;;;;;20.71;23.33;101024.00;5057531;28;20049;-78
2023/06/14 03:52:50;;;;;;;7.50;4.88;;;;;;;20.71;23.68;101029.56;5063736;28;20039;-77
2023/06/14 03:55:19;;;;;;;6.43;4.47;;;;;;;20.65;23.33;101025.66;5053596;28;20102;-79
2023/06/14 03:57:49;;;;;;;5.88;4.43;;;;;;;20.67;23.10;101033.81;5059021;28;20144;-77
2023/06/14 04:00:19;;;;;;;5.97;4.57;;;;;;;20.65;23.19;101031.22;5074961;28;20095;-77
2023/06/14 04:02:47;;;;;;;7.05;4.65;;;;;;;20.64;23.90;101046.19;5076386;28;20049;-78
2023/06/14 04:05:16;;;;;;;7.25;4.50;;;;;;;20.64;23.92;101046.19;5058083;28;20037;-78
2023/06/14 04:07:50;;;;;;;6.15;4.50;;;;;;;20.62;23.97;101050.19;5058200;28;20517;-77
2023/06/14 04:10:20;;;;;;;6.03;4.60;;;;;;;20.61;23.73;101052.13;5053268;28;20037;-77
2023/06/14 04:12:48;;;;;;;6.32;4.88;;;;;;;20.60;23.45;101049.56;5058625;28;20053;-77
2023/06/14 04:15:17;;;;;;;6.05;4.60;;;;;;;20.58;23.46;101052.50;5054774;28;20049;-78
2023/06/14 04:17:50;;;;;;;5.63;4.57;;;;;;;20.57;23.88;101056.34;5073864;28;20136;-77
2023/06/14 04:20:20;;;;;;;5.70;4.55;;;;;;;20.55;23.95;101052.00;5074226;28;20131;-78
2023/06/14 04:22:49;;;;;;;6.63;4.60;;;;;;;20.57;23.92;101061.03;5060538;28;20044;-78
2023/06/14 04:25:17;;;;;;;6.93;4.80;;;;;;;20.52;23.18;101058.84;5051317;28;20131;-78
2023/06/14 04:27:52;;;;;;;6.65;4.82;;;;;;;20.50;23.73;101065.66;5080243;28;20437;-78
2023/06/14 04:30:21;;;;;;;8.70;4.70;;;;;;;20.48;23.66;101071.41;5055913;28;20495;-78
2023/06/14 04:32:55;;;;;;;8.02;4.63;;;;;;;20.46;23.71;101079.06;5059251;28;20384;-79
2023/06/14 04:35:25;;;;;;;7.53;4.80;;;;;;;20.44;23.66;101074.78;5053229;28;20496;-77
2023/06/14 04:37:55;;;;;;;9.15;4.40;;;;;;;20.44;23.37;101077.56;5049904;28;20544;-77
2023/06/14 04:40:23;;;;;;;6.60;4.50;;;;;;;20.39;23.59;101078.97;5058489;28;20056;-77
2023/06/14 04:42:50;;;;;;;6.22;4.78;;;;;;;20.37;23.76;101088.56;5067378;28;20139;-78
2023/06/14 04:45:19;;;;;;;6.32;4.43;;;;;;;20.34;23.38;101081.50;5062812;28;20056;-78
2023/06/14 04:47:48;;;;;;;6.03;4.45;;;;;;;20.32;23.98;101080.81;5061163;28;20040;-77
2023/06/14 04:50:16;;;;;;;6.28;4.60;;;;;;;20.30;23.96;101088.47;5052354;28;20037;-77
2023/06/14 04:52:44;;;;;;;7.65;4.68;;;;;;;20.29;23.84;101086.75;5057074;28;20121;-77
2023/06/14 04:55:14;;;;;;;6.70;4.50;;;;;;;20.30;24.01;101094.03;5059812;28;20049;-80
2023/06/14 04:57:42;;;;;;;6.22;4.65;;;;;;;20.28;23.88;101089.75;5064464;28;20048;-77
2023/06/14 05:00:12;;;;;;;6.35;4.78;;;;;;;20.27;24.12;101094.44;5057411;28;20044;-79
2023/06/14 05:02:40;;;;;;;6.85;4.65;;;;;;;20.27;24.20;101094.44;5060319;28;20036;-79
2023/06/14 05:05:09;;;;;;;5.97;4.50;;;;;;;20.29;24.04;101102.56;5066472;28;20056;-79
2023/06/14 05:07:37;;;;;;;7.22;4.60;;;;;;;20.34;24.01;101103.72;5079731;28;20109;-79
2023/06/14 05:10:09;;;;;;;6.82;4.60;;;;;;;20.43;24.08;101114.75;5061224;28;20068;-80
2023/06/14 05:12:39;;;;;;;6.50;4.28;;;;;;;20.58;24.47;101110.03;5065616;28;20557;-79
2023/06/14 05:15:10;;;;;;;7.00;4.57;;;;;;;20.74;24.40;101113.47;5062162;28;20472;-79
2023/06/14 05:17:40;;;;;;;5.93;4.18;;;;;;;20.92;23.90;101112.19;5064115;28;20046;-79
2023/06/14 05:20:11;;;;;;;6.97;4.43;;;;;;;21.15;24.28;101119.31;5081947;28;20247;-79
2023/06/14 05:22:38;;;;;;;5.22;3.90;;;;;;;21.37;23.77;101114.63;5066978;28;20052;-78
2023/06/14 05:25:07;;;;;;;6.30;4.20;;;;;;;21.63;23.66;101115.94;5067023;28;20044;-78
2023/06/14 05:27:36;;;;;;;6.60;4.57;;;;;;;21.86;23.50;101106.28;5069034;28;20067;-80
2023/06/14 05:30:08;;;;;;;8.30;4.47;;;;;;;22.15;23.48;101107.16;5065937;28;20033;-79
2023/06/14 05:32:36;;;;;;;6.47;4.05;;;;;;;22.38;23.08;101112.44;5064785;28;20078;-79
2023/06/14 05:35:04;;;;;;;5.43;4.38;;;;;;;22.63;22.89;101117.34;5074141;28;20068;-79
2023/06/14 05:37:33;;;;;;;5.50;3.90;;;;;;;22.85;22.52;101108.81;5064054;28;20048;-79
2023/06/14 05:40:02;;;;;;;5.38;3.85;;;;;;;23.06;22.56;101119.00;5077298;28;20044;-79
2023/06/14 05:42:30;;;;;;;5.28;4.28;;;;;;;23.25;22.09;101112.66;5067470;28;20044;-80
2023/06/14 05:44:58;;;;;;;6.90;3.78;;;;;;;23.43;22.21;101118.44;5078495;28;20074;-80
2023/06/14 05:47:28;;;;;;;6.28;3.92;;;;;;;23.62;21.94;101113.97;5063981;28;20513;-80
2023/06/14 05:49:56;;;;;;;4.85;3.38;;;;;;;23.73;21.53;101122.56;5064886;28;20539;-79
2023/06/14 05:52:25;;;;;;;6.97;3.70;;;;;;;23.85;21.65;101120.00;5055645;28;20460;-78
2023/06/14 05:54:53;;;;;;;5.18;3.65;;;;;;;23.96;21.43;101121.28;5057424;28;20065;-80
2023/06/14 05:57:21;;;;;;;5.88;3.75;;;;;;;24.04;21.10;101129.47;5061240;28;20065;-79
2023/06/14 05:59:50;;;;;;;4.63;3.60;;;;;;;24.11;21.37;101127.50;5078333;28;20041;-80
2023/06/14 06:02:18;;;;;;;6.78;3.50;;;;;;;24.16;21.21;101130.50;5066093;28;20118;-79
2023/06/14 06:04:47;;;;;;;5.18;4.00;;;;;;;24.23;20.97;101134.19;5071650;28;20044;-80
2023/06/14 06:07:16;;;;;;;4.85;3.58;;;;;;;24.24;20.92;101126.66;5062865;28;20087;-79
2023/06/14 06:09:44;;;;;;;5.30;3.83;;;;;;;24.28;21.01;101139.09;5060622;28;20037;-78
2023/06/14 06:12:12;;;;;;;4.32;3.20;;;;;;;24.28;21.06;101142.75;5064081;28;20053;-79
2023/06/14 06:14:40;;;;;;;5.25;3.63;;;;;;;24.32;21.13;101138.44;5066281;28;20076;-78
2023/06/14 06:17:08;;;;;;;4.50;2.95;;;;;;;24.34;20.73;101139.09;5068795;28;20199;-80
2023/06/14 06:19:36;;;;;;;4.53;3.20;;;;;;;24.36;20.96;101138.91;5068829;28;20036;-81
2023/06/14 06:22:06;;;;;;;5.15;3.47;;;;;;;24.43;21.02;101139.75;5061626;28;20079;-80
2023/06/14 06:24:33;;;;;;;4.90;3.33;;;;;;;24.43;20.96;101145.34;5066677;28;20040;-79
2023/06/14 06:27:02;;;;;;;5.05;3.35;;;;;;;24.46;21.10;101137.38;5084304;28;20061;-79
2023/06/14 06:29:30;;;;;;;4.90;3.20;;;;;;;24.51;20.43;101145.09;5074237;28;20041;-80
2023/06/14 06:31:58;;;;;;;5.55;3.30;;;;;;;24.58;20.55;101142.28;5091917;28;20045;-79
2023/06/14 06:34:25;;;;;;;4.80;3.00;;;;;;;24.62;20.53;101141.63;5081880;28;20056;-79
2023/06/14 06:36:53;;;;;;;5.88;3.20;;;;;;;24.67;20.67;101144.63;5078261;28;20056;-81
2023/06/14 06:39:23;;;;;;;4.80;3.10;;;;;;;24.75;20.15;101146.31;5062159;28;20045;-80
2023/06/14 06:41:50;;;;;;;5.68;3.17;;;;;;;24.78;20.28;101148.69;5061545;28;20720;-79
2023/06/14 06:44:28;;;;;;;4.90;3.08;;;;;;;24.83;20.22;101144.13;5052392;28;20052;-77
2023/06/14 06:46:56;;;;;;;5.00;3.40;;;;;;;24.90;20.42;101155.28;5054731;28;20075;-81
2023/06/14 06:49:24;;;;;;;4.15;2.90;;;;;;;24.98;20.38;101166.25;5056461;28;20509;-79
2023/06/14 06:52:02;;;;;;;5.45;3.00;;;;;;;25.07;19.81;101164.94;5056855;28;20504;-79
2023/06/14 06:54:32;;;;;;;3.67;2.63;;;;;;;25.10;19.90;101172.91;5066829;28;20151;-80
2023/06/14 06:57:01;;;;;;;5.47;3.00;;;;;;;25.13;19.44;101168.81;5052732;28;20083;-80
2023/06/14 06:59:30;;;;;;;3.60;2.88;;;;;;;25.18;19.55;101168.97;5046765;28;20044;-79
2023/06/14 07:01:58;;;;;;;5.00;2.45;;;;;;;25.21;19.54;101174.16;5057648;28;20041;-78
2023/06/14 07:04:26;;;;;;;4.57;2.40;;;;;;;25.23;19.05;101171.97;5052135;28;20423;-79
2023/06/14 07:06:54;;;;;;;4.25;2.33;;;;;;;25.25;18.98;101164.19;5066844;28;20051;-80
2023/06/14 07:09:23;;;;;;;3.65;2.30;;;;;;;25.26;18.71;101171.53;5054470;28;20083;-77
2023/06/14 07:11:53;;;;;;;4.93;2.40;;;;;;;25.29;18.76;101182.28;5071435;28;20048;-78
2023/06/14 07:14:22;;;;;;;3.15;2.10;;;;;;;25.29;18.60;101187.03;5059902;28;20045;-77
2023/06/14 07:16:51;;;;;;;2.72;1.90;;;;;;;25.27;18.36;101181.66;5054854;28;20048;-77
2023/06/14 07:19:19;;;;;;;3.28;2.08;;;;;;;25.27;18.36;101178.84;5078047;28;20049;-76
2023/06/14 07:21:46;;;;;;;3.28;2.15;;;;;;;25.26;18.36;101178.00;5059446;28;20063;-77
2023/06/14 07:24:22;;;;;;;3.70;1.85;;;;;;;25.27;18.06;101182.50;5053637;28;20037;-77
2023/06/14 07:26:50;;;;;;;3.33;1.88;;;;;;;25.23;18.46;101180.38;5041757;28;20049;-77
2023/06/14 07:29:19;;;;;;;4.13;2.10;;;;;;;25.25;18.25;101179.06;5051530;28;20043;-76
2023/06/14 07:31:47;;;;;;;4.15;2.00;;;;;;;25.23;18.00;101174.75;5053606;28;20049;-78
2023/06/14 07:34:15;;;;;;;4.28;2.15;;;;;;;25.24;18.05;101177.34;5058199;28;21144;-77
2023/06/14 07:36:44;;;;;;;5.15;2.22;;;;;;;25.27;18.09;101178.84;5059065;28;20099;-76
2023/06/14 07:39:12;;;;;;;3.78;2.22;;;;;;;25.28;18.20;101177.78;5063586;28;20049;-79
2023/06/14 07:41:40;;;;;;;3.72;2.22;;;;;;;25.31;17.83;101180.09;5058347;28;20060;-79
2023/06/14 07:44:08;;;;;;;3.05;1.95;;;;;;;25.33;17.88;101180.75;5058555;28;20040;-78
2023/06/14 07:46:38;;;;;;;4.07;2.25;;;;;;;25.39;17.76;101179.00;5059852;28;20057;-77
2023/06/14 07:49:06;;;;;;;4.38;2.00;;;;;;;25.38;17.74;101180.94;5056087;28;20053;-77
2023/06/14 07:51:35;;;;;;;3.95;2.10;;;;;;;25.41;17.37;101177.69;5055403;28;20041;-79
2023/06/14 07:54:04;;;;;;;3.28;1.60;;;;;;;25.45;17.56;101181.75;5060532;28;20112;-79
2023/06/14 07:56:32;;;;;;;2.97;1.80;;;;;;;25.48;17.46;101181.28;5053637;28;20040;-78
2023/06/14 07:59:00;;;;;;;3.30;1.98;;;;;;;25.53;17.06;101180.66;5070680;28;20071;-79
2023/06/14 08:01:28;;;;;;;2.90;1.58;;;;;;;25.57;16.84;101181.91;5050494;28;20060;-76
2023/06/14 08:03:57;;;;;;;3.38;1.58;;;;;;;25.59;16.36;101188.16;5079500;28;20205;-78
2023/06/14 08:06:26;;;;;;;3.17;1.75;;;;;;;25.63;16.83;101195.06;5055071;28;20537;-79
2023/06/14 08:08:54;;;;;;;3.15;1.83;;;;;;;25.67;17.16;101181.44;5063258;28;20055;-79
2023/06/14 08:11:23;;;;;;;3.20;1.90;;;;;;;25.71;16.59;101185.50;5066389;28;20048;-79
2023/06/14 08:13:52;;;;;;;3.70;1.80;;;;;;;25.75;16.97;101183.97;5078740;28;20028;-79
2023/06/14 08:16:19;;;;;;;3.45;1.70;;;;;;;25.79;16.86;101180.50;5093177;28;20049;-78
2023/06/14 08:18:47;;;;;;;2.90;1.73;;;;;;;25.82;16.63;101170.75;5083433;28;20080;-78
2023/06/14 08:21:17;;;;;;;2.83;1.58;;;;;;;25.88;16.72;101176.31;5059063;28;20094;-78
2023/06/14 08:23:45;;;;;;;4.35;1.60;;;;;;;25.90;16.35;101182.53;5057047;28;20488;-78
2023/06/14 08:26:13;;;;;;;2.55;1.60;;;;;;;25.95;16.19;101184.69;5055134;28;20171;-80
2023/06/14 08:28:41;;;;;;;2.50;1.50;;;;;;;25.97;16.22;101188.94;5056440;28;20419;-78
2023/06/14 08:31:09;;;;;;;3.55;1.83;;;;;;;26.01;16.28;101183.75;5060852;28;20048;-79
2023/06/14 08:33:38;;;;;;;3.08;1.50;;;;;;;26.05;16.16;101187.78;5062326;28;20076;-79
2023/06/14 08:36:07;;;;;;;3.55;1.35;;;;;;;26.08;16.37;101180.91;5060769;28;20048;-79
2023/06/14 08:38:36;;;;;;;2.65;1.70;;;;;;;26.10;15.96;101182.41;5061416;28;20121;-79
2023/06/14 08:41:06;;;;;;;4.22;1.70;;;;;;;26.10;15.47;101184.34;5057625;28;20412;-79
2023/06/14 08:43:34;;;;;;;3.90;1.65;;;;;;;26.11;15.87;101195.34;5061373;28;20041;-79
2023/06/14 08:46:05;;;;;;;3.35;1.55;;;;;;;26.11;15.56;101192.56;5055734;28;20064;-79
2023/06/14 08:48:34;;;;;;;3.55;1.60;;;;;;;26.10;16.03;101184.34;5059287;28;20049;-78
2023/06/14 08:51:03;;;;;;;2.80;1.45;;;;;;;26.10;15.99;101192.78;5054743;28;20050;-78
2023/06/14 08:53:33;;;;;;;2.58;1.45;;;;;;;26.10;16.42;101182.41;5054153;28;20077;-78
2023/06/14 08:56:07;;;;;;;2.50;1.50;;;;;;;26.11;16.42;101180.47;5047154;28;20051;-78
2023/06/14 08:58:36;;;;;;;2.88;1.60;;;;;;;26.10;16.48;101181.56;5057385;28;20431;-77
2023/06/14 09:01:03;;;;;;;2.38;1.58;;;;;;;26.10;16.56;101176.81;5055496;28;20560;-77
2023/06/14 09:03:33;;;;;;;3.25;1.83;;;;;;;26.13;16.63;101181.09;5067473;28;20121;-78
2023/06/14 09:06:01;;;;;;;2.13;1.60;;;;;;;26.15;16.74;101181.72;5049471;28;20048;-78
2023/06/14 09:08:30;;;;;;;3.08;1.60;;;;;;;26.17;16.68;101177.59;5052878;28;20049;-78
2023/06/14 09:10:58;;;;;;;2.92;1.65;;;;;;;26.19;16.67;101188.59;5054557;28;20106;-78
2023/06/14 09:13:29;;;;;;;3.50;1.48;;;;;;;26.20;16.24;101188.38;5061563;28;20516;-77
2023/06/14 09:15:58;;;;;;;;;;;;;;;25.84;16.13;101191.00;5058632;28;20836;-78
2023/06/14 09:18:35;;;;;;;2.97;1.33;;;;;;;26.15;15.75;101188.19;5057022;28;19986;-77
2023/06/14 09:21:03;;;;;;;2.95;1.75;;;;;;;26.11;16.03;101184.13;5072997;28;20060;-78
2023/06/14 09:23:36;;;;;;;3.35;1.70;;;;;;;26.11;15.66;101194.50;5063639;28;20052;-78
2023/06/14 09:26:09;;;;;;;3.15;1.38;;;;;;;26.08;16.10;101195.81;5070342;28;20056;-78
2023/06/14 09:28:42;;;;;;;2.33;1.52;;;;;;;26.05;16.34;101195.38;5062937;28;20045;-78
2023/06/14 09:31:11;;;;;;;3.42;1.70;;;;;;;25.97;16.52;101190.88;5058703;28;20468;-78
2023/06/14 09:33:39;;;;;;;3.10;1.67;;;;;;;25.94;16.51;101206.25;5062648;28;20130;-78
2023/06/14 09:36:11;;;;;;;3.22;1.60;;;;;;;25.93;16.40;101198.06;5057518;28;20083;-79
2023/06/14 09:38:41;;;;;;;2.80;1.55;;;;;;;25.84;16.08;101219.03;5054207;28;20447;-78
2023/06/14 09:41:09;;;;;;;2.33;1.42;;;;;;;25.79;16.08;101210.47;5056902;28;20077;-78
2023/06/14 09:43:39;;;;;;;3.58;1.33;;;;;;;25.78;16.05;101219.97;5064709;28;20068;-80
2023/06/14 09:46:07;;;;;;;2.63;1.50;;;;;;;25.73;16.18;101216.97;5056922;28;20055;-78
2023/06/14 09:48:35;;;;;;;2.78;1.60;;;;;;;25.68;16.60;101228.88;5057681;28;20040;-79
2023/06/14 09:51:05;;;;;;;3.55;1.58;;;;;;;25.66;16.51;101214.19;5077666;28;20049;-79
2023/06/14 09:53:36;;;;;;;3.50;1.52;;;;;;;25.67;16.45;101215.06;5057282;28;20036;-79
2023/06/14 09:56:06;;;;;;;2.20;1.40;;;;;;;25.64;16.39;101213.56;5063462;28;20065;-78
2023/06/14 09:58:40;;;;;;;2.53;1.42;;;;;;;25.66;16.41;101216.16;5065719;28;20104;-80
2023/06/14 10:01:13;;;;;;;2.97;1.63;;;;;;;25.68;16.30;101216.78;5081361;28;20045;-79
2023/06/14 10:03:43;;;;;;;2.92;1.77;;;;;;;25.68;16.51;101212.03;5062012;28;20041;-81
2023/06/14 10:06:37;;;;;;;2.90;1.60;;;;;;;25.72;16.48;101224.50;5068744;28;20402;-79
2023/06/14 10:09:10;;;;;;;3.00;1.60;;;;;;;25.72;16.40;101232.09;5059892;28;20033;-77
2023/06/14 10:11:43;;;;;;;2.33;1.70;;;;;;;25.74;16.42;101230.75;5052427;28;20040;-78
2023/06/14 10:14:14;;;;;;;3.58;1.80;;;;;;;25.79;16.50;101227.28;5057310;28;20498;-78
2023/06/14 10:16:50;;;;;;;2.75;1.70;;;;;;;25.80;16.10;101226.22;5051607;28;20052;-77
2023/06/14 10:19:23;;;;;;;3.45;1.42;;;;;;;25.80;16.61;101212.19;5046625;28;20137;-78
2023/06/14 10:21:59;;;;;;;4.10;1.67;;;;;;;25.80;16.33;101209.38;5056935;28;20144;-78
2023/06/14 10:24:30;;;;;;;3.22;1.63;;;;;;;25.78;16.47;101215.22;5058022;28;20040;-78
2023/06/14 10:26:59;;;;;;;3.85;1.77;;;;;;;25.77;16.60;101201.41;5049825;28;20132;-78
2023/06/14 10:29:31;;;;;;;3.17;1.50;;;;;;;25.82;16.73;101202.44;5046285;28;20123;-79
2023/06/14 10:32:01;;;;;;;2.90;1.70;;;;;;;25.83;16.68;101211.72;5044660;28;20049;-77
2023/06/14 10:34:30;;;;;;;2.53;1.50;;;;;;;25.87;16.97;101198.97;5050663;28;20402;-78
2023/06/14 10:37:06;;;;;;;2.63;1.27;;;;;;;25.93;16.53;101204.53;5045349;28;20068;-78
2023/06/14 10:39:40;;;;;;;2.40;1.35;;;;;;;25.96;16.52;101201.28;5052381;28;20407;-77
2023/06/14 10:42:08;;;;;;;4.40;1.60;;;;;;;25.98;16.60;101201.03;5066259;28;20063;-78
2023/06/14 10:44:42;;;;;;;2.55;1.65;;;;;;;26.03;16.29;101195.59;5049641;28;20070;-77
2023/06/14 10:47:22;;;;;;;2.38;1.60;;;;;;;26.04;16.60;101202.06;5066907;28;20059;-78
2023/06/14 10:49:53;;;;;;;2.70;1.50;;;;;;;26.06;16.62;101197.94;5051032;28;20517;-77
2023/06/14 10:52:27;;;;;;;1.83;1.40;;;;;;;26.08;16.59;101197.75;5050523;28;20112;-78
2023/06/14 10:55:09;;;;;;;2.58;1.60;;;;;;;26.12;16.52;101190.59;5068739;28;20456;-77
2023/06/14 10:57:37;;;;;;;3.38;1.60;;;;;;;26.07;16.53;101196.88;5070566;28;20099;-77
2023/06/14 11:00:24;;;;;;;2.75;1.70;;;;;;;26.11;16.79;101200.97;5048229;28;20535;-78
2023/06/14 11:03:37;;;;;;;2.00;1.60;;;;;;;26.16;16.79;101203.06;5048736;28;20049;-78
2023/06/14 11:06:15;;;;;;;2.20;1.55;;;;;;;26.16;16.65;101197.47;5065979;28;20479;-78
2023/06/14 11:09:12;;;;;;;2.22;1.50;;;;;;;26.17;16.69;101197.22;5054226;28;20041;-78
2023/06/14 11:11:43;;;;;;;3.17;1.60;;;;;;;26.22;16.63;101200.19;5054978;28;20070;-79
2023/06/14 11:14:11;;;;;;;3.33;1.48;;;;;;;26.22;16.70;101190.91;5058498;28;20052;-78
2023/06/14 11:16:40;;;;;;;4.28;1.80;;;;;;;26.27;16.80;101191.09;5051209;28;20045;-77
2023/06/14 11:19:08;;;;;;;5.95;1.80;;;;;;;26.24;16.83;101191.56;5058556;28;20545;-76
2023/06/14 11:21:41;;;;;;;2.92;1.50;;;;;;;26.29;16.83;101189.78;5065544;28;20194;-78
2023/06/14 11:24:11;;;;;;;2.53;1.50;;;;;;;26.29;16.83;101188.94;5068893;28;20591;-79
2023/06/14 11:26:39;;;;;;;2.45;1.60;;;;;;;26.28;16.94;101184.41;5063632;28;20056;-79
2023/06/14 11:29:07;;;;;;;3.58;1.70;;;;;;;26.28;16.88;101181.59;5053855;28;20049;-80
2023/06/14 11:31:35;;;;;;;2.60;1.50;;;;;;;26.29;16.98;101184.19;5054426;28;20132;-79
2023/06/14 11:34:06;;;;;;;2.83;1.70;;;;;;;26.32;16.88;101180.03;5068327;28;20438;-77
2023/06/14 11:36:35;;;;;;;3.30;1.70;;;;;;;26.32;17.04;101180.03;5047051;28;20049;-78
2023/06/14 11:39:05;;;;;;;2.80;1.50;;;;;;;26.33;16.94;101178.94;5050678;28;20053;-77